sensor_id;sensor_type;location;lat;lon;timestamp;P1;durP1;ratioP1;P2;durP2;ratioP2
43819;SDS011;67762;52.476;6.046;2023-05-14T00:01:52;1999.90;;;999.90;;
43819;SDS011;67762;52.476;6.046;2023-05-14T00:04:18;1999.90;;;999.90;;
43819;SDS011;67762;52.476;6.046;2023-05-14T00:06:46;1999.90;;;999.90;;
43819;SDS011;67762;52.476;6.046;2023-05-14T00:09:12;1999.90;;;999.90;;
43819;SDS011;67762;52.476;6.046;2023-05-14T00:11:37;1999.90;;;999.90;;
43819;SDS011;67762;52.476;6.046;2023-05-14T00:14:03;1999.90;;;999.90;;
43819;SDS011;67762;52.476;6.046;2023-05-14T00:16:29;1999.90;;;999.90;;
43819;SDS011;67762;52.476;6.046;2023-05-14T00:18:55;1999.90;;;999.90;;
43819;SDS011;67762;52.476;6.046;2023-05-14T00:21:21;1999.90;;;999.90;;
43819;SDS011;67762;52.476;6.046;2023-05-14T00:23:46;1999.90;;;999.90;;
43819;SDS011;67762;52.476;6.046;2023-05-14T00:26:12;1999.90;;;999.90;;
43819;SDS011;67762;52.476;6.046;2023-05-14T00:28:39;1999.90;;;999.90;;
43819;SDS011;67762;52.476;6.046;2023-05-14T00:31:04;1999.90;;;999.90;;
43819;SDS011;67762;52.476;6.046;2023-05-14T00:33:30;1999.90;;;999.90;;
43819;SDS011;67762;52.476;6.046;2023-05-14T00:35:55;1999.90;;;999.90;;
43819;SDS011;67762;52.476;6.046;2023-05-14T00:38:21;1999.90;;;999.90;;
43819;SDS011;67762;52.476;6.046;2023-05-14T00:40:48;1999.90;;;999.90;;
43819;SDS011;67762;52.476;6.046;2023-05-14T00:43:18;1999.90;;;999.90;;
43819;SDS011;67762;52.476;6.046;2023-05-14T00:45:44;1999.90;;;999.90;;
43819;SDS011;67762;52.476;6.046;2023-05-14T00:48:10;1999.90;;;999.90;;
43819;SDS011;67762;52.476;6.046;2023-05-14T00:50:36;1999.90;;;999.90;;
43819;SDS011;67762;52.476;6.046;2023-05-14T00:53:02;1999.90;;;999.90;;
43819;SDS011;67762;52.476;6.046;2023-05-14T00:55:35;1999.90;;;999.90;;
43819;SDS011;67762;52.476;6.046;2023-05-14T00:58:09;1999.90;;;999.90;;
43819;SDS011;67762;52.476;6.046;2023-05-14T01:00:36;1999.90;;;999.90;;
43819;SDS011;67762;52.476;6.046;2023-05-14T01:03:03;1999.90;;;999.90;;
43819;SDS011;67762;52.476;6.046;2023-05-14T01:05:40;1999.90;;;999.90;;
43819;SDS011;67762;52.476;6.046;2023-05-14T01:10:51;1999.90;;;999.90;;
43819;SDS011;67762;52.476;6.046;2023-05-14T01:13:24;1999.90;;;999.90;;
43819;SDS011;67762;52.476;6.046;2023-05-14T01:15:57;1999.90;;;999.90;;
43819;SDS011;67762;52.476;6.046;2023-05-14T01:18:24;1999.90;;;999.90;;
43819;SDS011;67762;52.476;6.046;2023-05-14T01:20:52;1999.90;;;999.90;;
43819;SDS011;67762;52.476;6.046;2023-05-14T01:23:18;1999.90;;;999.90;;
43819;SDS011;67762;52.476;6.046;2023-05-14T01:25:44;1999.90;;;999.90;;
43819;SDS011;67762;52.476;6.046;2023-05-14T01:28:19;1999.90;;;999.90;;
43819;SDS011;67762;52.476;6.046;2023-05-14T01:30:58;1999.90;;;999.90;;
43819;SDS011;67762;52.476;6.046;2023-05-14T01:33:32;1999.90;;;999.90;;
43819;SDS011;67762;52.476;6.046;2023-05-14T01:35:59;1999.90;;;999.90;;
43819;SDS011;67762;52.476;6.046;2023-05-14T01:38:26;1999.90;;;999.90;;
43819;SDS011;67762;52.476;6.046;2023-05-14T01:40:55;1999.90;;;999.90;;
43819;SDS011;67762;52.476;6.046;2023-05-14T01:43:22;1999.90;;;999.90;;
43819;SDS011;67762;52.476;6.046;2023-05-14T01:45:48;1999.90;;;999.90;;
43819;SDS011;67762;52.476;6.046;2023-05-14T01:48:14;1999.90;;;999.90;;
43819;SDS011;67762;52.476;6.046;2023-05-14T01:50:39;1999.90;;;999.90;;
43819;SDS011;67762;52.476;6.046;2023-05-14T01:53:05;1999.90;;;999.90;;
43819;SDS011;67762;52.476;6.046;2023-05-14T01:55:31;1999.90;;;999.90;;
43819;SDS011;67762;52.476;6.046;2023-05-14T01:57:56;1999.90;;;999.90;;
43819;SDS011;67762;52.476;6.046;2023-05-14T02:00:22;1999.90;;;999.90;;
43819;SDS011;67762;52.476;6.046;2023-05-14T02:02:51;1999.90;;;999.90;;
43819;SDS011;67762;52.476;6.046;2023-05-14T02:05:17;1999.90;;;999.90;;
43819;SDS011;67762;52.476;6.046;2023-05-14T02:07:43;1999.90;;;999.90;;
43819;SDS011;67762;52.476;6.046;2023-05-14T02:10:08;1999.90;;;999.90;;
43819;SDS011;67762;52.476;6.046;2023-05-14T02:12:35;1999.90;;;999.90;;
43819;SDS011;67762;52.476;6.046;2023-05-14T02:15:01;1999.90;;;999.90;;
43819;SDS011;67762;52.476;6.046;2023-05-14T02:17:28;1999.90;;;999.90;;
43819;SDS011;67762;52.476;6.046;2023-05-14T02:19:53;1999.90;;;999.90;;
43819;SDS011;67762;52.476;6.046;2023-05-14T02:22:19;1999.90;;;999.90;;
43819;SDS011;67762;52.476;6.046;2023-05-14T02:24:44;1999.90;;;999.90;;
43819;SDS011;67762;52.476;6.046;2023-05-14T02:27:10;1999.90;;;999.90;;
43819;SDS011;67762;52.476;6.046;2023-05-14T02:29:37;1999.90;;;999.90;;
43819;SDS011;67762;52.476;6.046;2023-05-14T02:32:03;1999.90;;;999.90;;
43819;SDS011;67762;52.476;6.046;2023-05-14T02:34:29;1999.90;;;999.90;;
43819;SDS011;67762;52.476;6.046;2023-05-14T02:36:55;1999.90;;;999.90;;
43819;SDS011;67762;52.476;6.046;2023-05-14T02:39:20;1999.90;;;999.90;;
43819;SDS011;67762;52.476;6.046;2023-05-14T02:41:46;1999.90;;;999.90;;
43819;SDS011;67762;52.476;6.046;2023-05-14T02:44:12;1999.90;;;999.90;;
43819;SDS011;67762;52.476;6.046;2023-05-14T02:46:37;1999.90;;;999.90;;
43819;SDS011;67762;52.476;6.046;2023-05-14T02:49:03;1999.90;;;999.90;;
43819;SDS011;67762;52.476;6.046;2023-05-14T02:51:28;1999.90;;;999.90;;
43819;SDS011;67762;52.476;6.046;2023-05-14T02:53:54;1999.90;;;999.90;;
43819;SDS011;67762;52.476;6.046;2023-05-14T02:56:20;1999.90;;;999.90;;
43819;SDS011;67762;52.476;6.046;2023-05-14T02:58:46;1999.90;;;999.90;;
43819;SDS011;67762;52.476;6.046;2023-05-14T03:01:12;1999.90;;;999.90;;
43819;SDS011;67762;52.476;6.046;2023-05-14T03:03:38;1999.90;;;999.90;;
43819;SDS011;67762;52.476;6.046;2023-05-14T03:06:04;1999.90;;;999.90;;
43819;SDS011;67762;52.476;6.046;2023-05-14T03:08:30;1999.90;;;999.90;;
43819;SDS011;67762;52.476;6.046;2023-05-14T03:10:55;1999.90;;;999.90;;
43819;SDS011;67762;52.476;6.046;2023-05-14T03:13:21;1999.90;;;999.90;;
43819;SDS011;67762;52.476;6.046;2023-05-14T03:15:47;1999.90;;;999.90;;
43819;SDS011;67762;52.476;6.046;2023-05-14T03:18:12;1999.90;;;999.90;;
43819;SDS011;67762;52.476;6.046;2023-05-14T03:20:38;1999.90;;;999.90;;
43819;SDS011;67762;52.476;6.046;2023-05-14T03:23:04;1999.90;;;999.90;;
43819;SDS011;67762;52.476;6.046;2023-05-14T03:25:30;1999.90;;;999.90;;
43819;SDS011;67762;52.476;6.046;2023-05-14T03:27:57;1999.90;;;999.90;;
43819;SDS011;67762;52.476;6.046;2023-05-14T03:30:23;1999.90;;;999.90;;
43819;SDS011;67762;52.476;6.046;2023-05-14T03:32:48;1999.90;;;999.90;;
43819;SDS011;67762;52.476;6.046;2023-05-14T03:35:14;1999.90;;;999.90;;
43819;SDS011;67762;52.476;6.046;2023-05-14T03:37:40;1999.90;;;999.90;;
43819;SDS011;67762;52.476;6.046;2023-05-14T03:40:06;1999.90;;;999.90;;
43819;SDS011;67762;52.476;6.046;2023-05-14T03:42:34;1999.90;;;999.90;;
43819;SDS011;67762;52.476;6.046;2023-05-14T03:45:01;1999.90;;;999.90;;
43819;SDS011;67762;52.476;6.046;2023-05-14T03:47:27;1999.90;;;999.90;;
43819;SDS011;67762;52.476;6.046;2023-05-14T03:49:52;1999.90;;;999.90;;
43819;SDS011;67762;52.476;6.046;2023-05-14T03:52:18;1999.90;;;999.90;;
43819;SDS011;67762;52.476;6.046;2023-05-14T03:54:44;1999.90;;;999.90;;
43819;SDS011;67762;52.476;6.046;2023-05-14T03:57:09;1999.90;;;999.90;;
43819;SDS011;67762;52.476;6.046;2023-05-14T03:59:35;1999.90;;;999.90;;
43819;SDS011;67762;52.476;6.046;2023-05-14T04:02:01;1999.90;;;999.90;;
43819;SDS011;67762;52.476;6.046;2023-05-14T04:04:26;1999.90;;;999.90;;
43819;SDS011;67762;52.476;6.046;2023-05-14T04:06:52;1999.90;;;999.90;;
43819;SDS011;67762;52.476;6.046;2023-05-14T04:09:17;1999.90;;;999.90;;
43819;SDS011;67762;52.476;6.046;2023-05-14T04:11:43;1999.90;;;999.90;;
43819;SDS011;67762;52.476;6.046;2023-05-14T04:14:08;1999.90;;;999.90;;
43819;SDS011;67762;52.476;6.046;2023-05-14T04:16:34;1999.90;;;999.90;;
43819;SDS011;67762;52.476;6.046;2023-05-14T04:19:01;1999.90;;;999.90;;
43819;SDS011;67762;52.476;6.046;2023-05-14T04:21:28;1999.90;;;999.90;;
43819;SDS011;67762;52.476;6.046;2023-05-14T04:23:53;1999.90;;;999.90;;
43819;SDS011;67762;52.476;6.046;2023-05-14T04:26:19;1999.90;;;999.90;;
43819;SDS011;67762;52.476;6.046;2023-05-14T04:28:45;1999.90;;;999.90;;
43819;SDS011;67762;52.476;6.046;2023-05-14T04:31:11;1999.90;;;999.90;;
43819;SDS011;67762;52.476;6.046;2023-05-14T04:33:37;1999.90;;;999.90;;
43819;SDS011;67762;52.476;6.046;2023-05-14T04:36:02;1999.90;;;999.90;;
43819;SDS011;67762;52.476;6.046;2023-05-14T04:38:29;1999.90;;;999.90;;
43819;SDS011;67762;52.476;6.046;2023-05-14T04:40:56;1999.90;;;999.90;;
43819;SDS011;67762;52.476;6.046;2023-05-14T04:43:22;1999.90;;;999.90;;
43819;SDS011;67762;52.476;6.046;2023-05-14T04:45:48;1999.90;;;999.90;;
43819;SDS011;67762;52.476;6.046;2023-05-14T04:48:13;1999.90;;;999.90;;
43819;SDS011;67762;52.476;6.046;2023-05-14T04:50:39;1999.90;;;999.90;;
43819;SDS011;67762;52.476;6.046;2023-05-14T04:53:04;1999.90;;;999.90;;
43819;SDS011;67762;52.476;6.046;2023-05-14T04:55:30;1999.90;;;999.90;;
43819;SDS011;67762;52.476;6.046;2023-05-14T04:57:56;1999.90;;;999.90;;
43819;SDS011;67762;52.476;6.046;2023-05-14T05:00:21;1999.90;;;999.90;;
43819;SDS011;67762;52.476;6.046;2023-05-14T05:02:47;1999.90;;;999.90;;
43819;SDS011;67762;52.476;6.046;2023-05-14T05:05:13;1999.90;;;999.90;;
43819;SDS011;67762;52.476;6.046;2023-05-14T05:07:38;1999.90;;;999.90;;
43819;SDS011;67762;52.476;6.046;2023-05-14T05:10:04;1999.90;;;999.90;;
43819;SDS011;67762;52.476;6.046;2023-05-14T05:12:31;1999.90;;;999.90;;
43819;SDS011;67762;52.476;6.046;2023-05-14T05:14:56;1999.90;;;999.90;;
43819;SDS011;67762;52.476;6.046;2023-05-14T05:17:22;1999.90;;;999.90;;
43819;SDS011;67762;52.476;6.046;2023-05-14T05:19:49;1999.90;;;999.90;;
43819;SDS011;67762;52.476;6.046;2023-05-14T05:22:15;1999.90;;;999.90;;
43819;SDS011;67762;52.476;6.046;2023-05-14T05:24:40;1999.90;;;999.90;;
43819;SDS011;67762;52.476;6.046;2023-05-14T05:27:06;1999.90;;;999.90;;
43819;SDS011;67762;52.476;6.046;2023-05-14T05:29:32;1999.90;;;999.90;;
43819;SDS011;67762;52.476;6.046;2023-05-14T05:31:58;1999.90;;;999.90;;
43819;SDS011;67762;52.476;6.046;2023-05-14T05:34:24;1999.90;;;999.90;;
43819;SDS011;67762;52.476;6.046;2023-05-14T05:36:50;1999.90;;;999.90;;
43819;SDS011;67762;52.476;6.046;2023-05-14T05:39:16;1999.90;;;999.90;;
43819;SDS011;67762;52.476;6.046;2023-05-14T05:41:41;1999.90;;;999.90;;
43819;SDS011;67762;52.476;6.046;2023-05-14T05:44:07;1999.90;;;999.90;;
43819;SDS011;67762;52.476;6.046;2023-05-14T05:46:33;1999.90;;;999.90;;
43819;SDS011;67762;52.476;6.046;2023-05-14T05:48:59;1999.90;;;999.90;;
43819;SDS011;67762;52.476;6.046;2023-05-14T05:51:24;1999.90;;;999.90;;
43819;SDS011;67762;52.476;6.046;2023-05-14T05:53:50;1999.90;;;999.90;;
43819;SDS011;67762;52.476;6.046;2023-05-14T05:56:15;1999.90;;;999.90;;
43819;SDS011;67762;52.476;6.046;2023-05-14T05:58:41;1999.90;;;999.90;;
43819;SDS011;67762;52.476;6.046;2023-05-14T06:01:07;1999.90;;;999.90;;
43819;SDS011;67762;52.476;6.046;2023-05-14T06:03:32;1999.90;;;999.90;;
43819;SDS011;67762;52.476;6.046;2023-05-14T06:05:58;1999.90;;;999.90;;
43819;SDS011;67762;52.476;6.046;2023-05-14T06:08:23;1999.90;;;999.90;;
43819;SDS011;67762;52.476;6.046;2023-05-14T06:10:49;1999.90;;;999.90;;
43819;SDS011;67762;52.476;6.046;2023-05-14T06:13:15;1999.90;;;999.90;;
43819;SDS011;67762;52.476;6.046;2023-05-14T06:15:40;1999.90;;;999.90;;
43819;SDS011;67762;52.476;6.046;2023-05-14T06:18:06;1999.90;;;999.90;;
43819;SDS011;67762;52.476;6.046;2023-05-14T06:20:32;1999.90;;;999.90;;
43819;SDS011;67762;52.476;6.046;2023-05-14T06:22:58;1999.90;;;999.90;;
43819;SDS011;67762;52.476;6.046;2023-05-14T06:25:24;1999.90;;;999.90;;
43819;SDS011;67762;52.476;6.046;2023-05-14T06:27:49;1999.90;;;999.90;;
43819;SDS011;67762;52.476;6.046;2023-05-14T06:30:15;1999.90;;;999.90;;
43819;SDS011;67762;52.476;6.046;2023-05-14T06:32:41;1999.90;;;999.90;;
43819;SDS011;67762;52.476;6.046;2023-05-14T06:35:06;1999.90;;;999.90;;
43819;SDS011;67762;52.476;6.046;2023-05-14T06:37:32;1999.90;;;999.90;;
43819;SDS011;67762;52.476;6.046;2023-05-14T06:39:59;1999.90;;;999.90;;
43819;SDS011;67762;52.476;6.046;2023-05-14T06:42:25;1999.90;;;999.90;;
43819;SDS011;67762;52.476;6.046;2023-05-14T06:44:50;1999.90;;;999.90;;
43819;SDS011;67762;52.476;6.046;2023-05-14T06:47:16;1999.90;;;999.90;;
43819;SDS011;67762;52.476;6.046;2023-05-14T06:49:42;1999.90;;;999.90;;
43819;SDS011;67762;52.476;6.046;2023-05-14T06:52:07;1999.90;;;999.90;;
43819;SDS011;67762;52.476;6.046;2023-05-14T06:54:33;1999.90;;;999.90;;
43819;SDS011;67762;52.476;6.046;2023-05-14T06:56:59;1999.90;;;999.90;;
43819;SDS011;67762;52.476;6.046;2023-05-14T06:59:24;1999.90;;;999.90;;
43819;SDS011;67762;52.476;6.046;2023-05-14T07:01:50;1999.90;;;999.90;;
43819;SDS011;67762;52.476;6.046;2023-05-14T07:04:16;1999.90;;;999.90;;
43819;SDS011;67762;52.476;6.046;2023-05-14T07:06:41;1999.90;;;999.90;;
43819;SDS011;67762;52.476;6.046;2023-05-14T07:09:07;1999.90;;;999.90;;
43819;SDS011;67762;52.476;6.046;2023-05-14T07:11:32;1999.90;;;999.90;;
43819;SDS011;67762;52.476;6.046;2023-05-14T07:13:58;1999.90;;;999.90;;
43819;SDS011;67762;52.476;6.046;2023-05-14T07:16:24;1999.90;;;999.90;;
43819;SDS011;67762;52.476;6.046;2023-05-14T07:18:50;1999.90;;;999.90;;
43819;SDS011;67762;52.476;6.046;2023-05-14T07:21:16;1999.90;;;999.90;;
43819;SDS011;67762;52.476;6.046;2023-05-14T07:23:41;1999.90;;;999.90;;
43819;SDS011;67762;52.476;6.046;2023-05-14T07:26:07;1999.90;;;999.90;;
43819;SDS011;67762;52.476;6.046;2023-05-14T07:28:33;1999.90;;;999.90;;
43819;SDS011;67762;52.476;6.046;2023-05-14T07:30:58;1999.90;;;999.90;;
43819;SDS011;67762;52.476;6.046;2023-05-14T07:33:24;1999.90;;;999.90;;
43819;SDS011;67762;52.476;6.046;2023-05-14T07:35:50;1999.90;;;999.90;;
43819;SDS011;67762;52.476;6.046;2023-05-14T07:38:17;1999.90;;;999.90;;
43819;SDS011;67762;52.476;6.046;2023-05-14T07:40:43;1999.90;;;999.90;;
43819;SDS011;67762;52.476;6.046;2023-05-14T07:43:09;1999.90;;;999.90;;
43819;SDS011;67762;52.476;6.046;2023-05-14T07:45:35;1999.90;;;999.90;;
43819;SDS011;67762;52.476;6.046;2023-05-14T07:48:01;1999.90;;;999.90;;
43819;SDS011;67762;52.476;6.046;2023-05-14T07:50:27;1999.90;;;999.90;;
43819;SDS011;67762;52.476;6.046;2023-05-14T07:52:53;1999.90;;;999.90;;
43819;SDS011;67762;52.476;6.046;2023-05-14T07:55:18;1999.90;;;999.90;;
43819;SDS011;67762;52.476;6.046;2023-05-14T07:57:44;1999.90;;;999.90;;
43819;SDS011;67762;52.476;6.046;2023-05-14T08:00:10;1999.90;;;999.90;;
43819;SDS011;67762;52.476;6.046;2023-05-14T08:02:39;1999.90;;;999.90;;
43819;SDS011;67762;52.476;6.046;2023-05-14T08:05:05;1999.90;;;999.90;;
43819;SDS011;67762;52.476;6.046;2023-05-14T08:07:31;1999.90;;;999.90;;
43819;SDS011;67762;52.476;6.046;2023-05-14T08:09:57;1999.90;;;999.90;;
43819;SDS011;67762;52.476;6.046;2023-05-14T08:12:23;1999.90;;;999.90;;
43819;SDS011;67762;52.476;6.046;2023-05-14T08:14:48;1999.90;;;999.90;;
43819;SDS011;67762;52.476;6.046;2023-05-14T08:17:14;1999.90;;;999.90;;
43819;SDS011;67762;52.476;6.046;2023-05-14T08:19:40;1999.90;;;999.90;;
43819;SDS011;67762;52.476;6.046;2023-05-14T08:22:06;1999.90;;;999.90;;
43819;SDS011;67762;52.476;6.046;2023-05-14T08:24:31;1999.90;;;999.90;;
43819;SDS011;67762;52.476;6.046;2023-05-14T08:26:57;1999.90;;;999.90;;
43819;SDS011;67762;52.476;6.046;2023-05-14T08:29:22;1999.90;;;999.90;;
43819;SDS011;67762;52.476;6.046;2023-05-14T08:31:48;1999.90;;;999.90;;
43819;SDS011;67762;52.476;6.046;2023-05-14T08:34:14;1999.90;;;999.90;;
43819;SDS011;67762;52.476;6.046;2023-05-14T08:36:40;1999.90;;;999.90;;
43819;SDS011;67762;52.476;6.046;2023-05-14T08:39:05;1999.90;;;999.90;;
43819;SDS011;67762;52.476;6.046;2023-05-14T08:41:34;1999.90;;;999.90;;
43819;SDS011;67762;52.476;6.046;2023-05-14T08:46:42;1999.90;;;999.90;;
43819;SDS011;67762;52.476;6.046;2023-05-14T08:52:02;1999.90;;;999.90;;
43819;SDS011;67762;52.476;6.046;2023-05-14T08:54:28;233.85;;;221.55;;
43819;SDS011;67762;52.476;6.046;2023-05-14T08:56:56;1999.90;;;999.90;;
43819;SDS011;67762;52.476;6.046;2023-05-14T08:59:23;1999.90;;;999.90;;
43819;SDS011;67762;52.476;6.046;2023-05-14T09:01:50;1999.90;;;999.90;;
43819;SDS011;67762;52.476;6.046;2023-05-14T09:04:21;269.40;;;255.18;;
43819;SDS011;67762;52.476;6.046;2023-05-14T09:06:48;1999.90;;;999.90;;
43819;SDS011;67762;52.476;6.046;2023-05-14T09:09:14;1999.90;;;999.90;;
43819;SDS011;67762;52.476;6.046;2023-05-14T09:11:40;1999.90;;;999.90;;
43819;SDS011;67762;52.476;6.046;2023-05-14T09:14:07;1999.90;;;999.90;;
43819;SDS011;67762;52.476;6.046;2023-05-14T09:16:34;1999.90;;;999.90;;
43819;SDS011;67762;52.476;6.046;2023-05-14T09:19:02;1999.90;;;999.90;;
43819;SDS011;67762;52.476;6.046;2023-05-14T09:21:28;1999.90;;;999.90;;
43819;SDS011;67762;52.476;6.046;2023-05-14T09:23:55;1999.90;;;999.90;;
43819;SDS011;67762;52.476;6.046;2023-05-14T09:26:24;1999.90;;;999.90;;
43819;SDS011;67762;52.476;6.046;2023-05-14T09:28:54;1999.90;;;999.90;;
43819;SDS011;67762;52.476;6.046;2023-05-14T09:31:22;598.53;;;342.67;;
43819;SDS011;67762;52.476;6.046;2023-05-14T09:33:51;1999.90;;;999.90;;
43819;SDS011;67762;52.476;6.046;2023-05-14T09:36:17;1999.90;;;999.90;;
43819;SDS011;67762;52.476;6.046;2023-05-14T09:38:43;1534.60;;;782.53;;
43819;SDS011;67762;52.476;6.046;2023-05-14T09:41:09;1999.90;;;999.90;;
43819;SDS011;67762;52.476;6.046;2023-05-14T09:43:35;1999.90;;;999.90;;
43819;SDS011;67762;52.476;6.046;2023-05-14T09:46:00;1999.90;;;999.90;;
43819;SDS011;67762;52.476;6.046;2023-05-14T09:48:26;243.00;;;230.57;;
43819;SDS011;67762;52.476;6.046;2023-05-14T09:50:52;315.92;;;299.65;;
43819;SDS011;67762;52.476;6.046;2023-05-14T09:53:18;1999.90;;;999.90;;
43819;SDS011;67762;52.476;6.046;2023-05-14T09:55:43;213.10;;;201.95;;
43819;SDS011;67762;52.476;6.046;2023-05-14T09:58:09;134.98;;;127.25;;
43819;SDS011;67762;52.476;6.046;2023-05-14T10:00:36;245.30;;;232.48;;
43819;SDS011;67762;52.476;6.046;2023-05-14T10:03:05;231.82;;;219.80;;
43819;SDS011;67762;52.476;6.046;2023-05-14T10:05:35;244.80;;;232.32;;
43819;SDS011;67762;52.476;6.046;2023-05-14T10:08:07;200.23;;;189.27;;
43819;SDS011;67762;52.476;6.046;2023-05-14T10:10:37;90.47;;;84.80;;
43819;SDS011;67762;52.476;6.046;2023-05-14T10:13:03;115.00;;;108.45;;
43819;SDS011;67762;52.476;6.046;2023-05-14T10:18:16;79.32;;;74.40;;
43819;SDS011;67762;52.476;6.046;2023-05-14T10:20:46;89.30;;;83.72;;
43819;SDS011;67762;52.476;6.046;2023-05-14T10:23:20;101.95;;;96.13;;
43819;SDS011;67762;52.476;6.046;2023-05-14T10:25:46;96.85;;;91.32;;
43819;SDS011;67762;52.476;6.046;2023-05-14T10:28:11;95.78;;;89.65;;
43819;SDS011;67762;52.476;6.046;2023-05-14T10:30:42;92.80;;;87.57;;
43819;SDS011;67762;52.476;6.046;2023-05-14T10:33:12;116.57;;;109.55;;
43819;SDS011;67762;52.476;6.046;2023-05-14T10:35:49;117.80;;;111.13;;
43819;SDS011;67762;52.476;6.046;2023-05-14T10:38:31;88.07;;;82.75;;
43819;SDS011;67762;52.476;6.046;2023-05-14T10:41:01;43.40;;;40.40;;
43819;SDS011;67762;52.476;6.046;2023-05-14T10:43:39;32.97;;;30.67;;
43819;SDS011;67762;52.476;6.046;2023-05-14T10:46:06;32.30;;;30.10;;
43819;SDS011;67762;52.476;6.046;2023-05-14T10:48:33;31.67;;;29.17;;
43819;SDS011;67762;52.476;6.046;2023-05-14T10:51:00;32.17;;;29.65;;
43819;SDS011;67762;52.476;6.046;2023-05-14T10:53:40;33.38;;;30.88;;
43819;SDS011;67762;52.476;6.046;2023-05-14T10:56:10;30.13;;;27.63;;
43819;SDS011;67762;52.476;6.046;2023-05-14T10:58:41;27.58;;;25.50;;
43819;SDS011;67762;52.476;6.046;2023-05-14T11:01:09;25.65;;;23.67;;
43819;SDS011;67762;52.476;6.046;2023-05-14T11:03:40;31.10;;;28.42;;
43819;SDS011;67762;52.476;6.046;2023-05-14T11:06:06;28.00;;;25.88;;
43819;SDS011;67762;52.476;6.046;2023-05-14T11:08:33;25.60;;;23.52;;
43819;SDS011;67762;52.476;6.046;2023-05-14T11:10:59;27.98;;;25.88;;
43819;SDS011;67762;52.476;6.046;2023-05-14T11:13:25;25.85;;;23.90;;
43819;SDS011;67762;52.476;6.046;2023-05-14T11:15:51;26.55;;;24.30;;
43819;SDS011;67762;52.476;6.046;2023-05-14T11:18:27;25.92;;;23.63;;
43819;SDS011;67762;52.476;6.046;2023-05-14T11:20:57;24.98;;;23.20;;
43819;SDS011;67762;52.476;6.046;2023-05-14T11:23:26;27.10;;;25.05;;
43819;SDS011;67762;52.476;6.046;2023-05-14T11:25:52;26.33;;;24.23;;
43819;SDS011;67762;52.476;6.046;2023-05-14T11:28:19;21.65;;;19.42;;
43819;SDS011;67762;52.476;6.046;2023-05-14T11:30:49;23.83;;;21.83;;
43819;SDS011;67762;52.476;6.046;2023-05-14T11:33:15;25.02;;;22.88;;
43819;SDS011;67762;52.476;6.046;2023-05-14T11:35:41;28.30;;;26.00;;
43819;SDS011;67762;52.476;6.046;2023-05-14T11:38:15;28.30;;;25.95;;
43819;SDS011;67762;52.476;6.046;2023-05-14T11:40:42;24.85;;;22.77;;
43819;SDS011;67762;52.476;6.046;2023-05-14T11:43:15;26.65;;;24.70;;
43819;SDS011;67762;52.476;6.046;2023-05-14T11:45:41;26.00;;;23.75;;
43819;SDS011;67762;52.476;6.046;2023-05-14T11:48:13;23.80;;;21.90;;
43819;SDS011;67762;52.476;6.046;2023-05-14T11:50:50;23.40;;;21.77;;
43819;SDS011;67762;52.476;6.046;2023-05-14T11:53:29;24.70;;;22.73;;
43819;SDS011;67762;52.476;6.046;2023-05-14T11:55:55;25.45;;;22.80;;
43819;SDS011;67762;52.476;6.046;2023-05-14T11:58:24;26.10;;;24.13;;
43819;SDS011;67762;52.476;6.046;2023-05-14T12:00:50;26.23;;;24.05;;
43819;SDS011;67762;52.476;6.046;2023-05-14T12:03:20;27.38;;;25.17;;
43819;SDS011;67762;52.476;6.046;2023-05-14T12:08:26;22.35;;;20.65;;
43819;SDS011;67762;52.476;6.046;2023-05-14T12:10:53;23.48;;;21.67;;
43819;SDS011;67762;52.476;6.046;2023-05-14T12:13:20;23.13;;;21.02;;
43819;SDS011;67762;52.476;6.046;2023-05-14T12:15:47;23.17;;;21.20;;
43819;SDS011;67762;52.476;6.046;2023-05-14T12:18:18;23.58;;;21.88;;
43819;SDS011;67762;52.476;6.046;2023-05-14T12:20:45;25.23;;;22.90;;
43819;SDS011;67762;52.476;6.046;2023-05-14T12:23:15;23.38;;;21.52;;
43819;SDS011;67762;52.476;6.046;2023-05-14T12:25:50;22.88;;;20.52;;
43819;SDS011;67762;52.476;6.046;2023-05-14T12:28:17;25.30;;;23.15;;
43819;SDS011;67762;52.476;6.046;2023-05-14T12:30:44;24.42;;;22.45;;
43819;SDS011;67762;52.476;6.046;2023-05-14T12:33:10;23.48;;;21.10;;
43819;SDS011;67762;52.476;6.046;2023-05-14T12:35:36;23.45;;;20.98;;
43819;SDS011;67762;52.476;6.046;2023-05-14T12:38:02;21.55;;;19.65;;
43819;SDS011;67762;52.476;6.046;2023-05-14T12:40:28;20.50;;;18.75;;
43819;SDS011;67762;52.476;6.046;2023-05-14T12:42:54;20.75;;;19.15;;
43819;SDS011;67762;52.476;6.046;2023-05-14T12:45:19;22.00;;;20.13;;
43819;SDS011;67762;52.476;6.046;2023-05-14T12:47:45;22.10;;;20.30;;
43819;SDS011;67762;52.476;6.046;2023-05-14T12:50:11;21.70;;;19.52;;
43819;SDS011;67762;52.476;6.046;2023-05-14T12:52:36;23.00;;;21.05;;
43819;SDS011;67762;52.476;6.046;2023-05-14T12:55:02;22.58;;;20.55;;
43819;SDS011;67762;52.476;6.046;2023-05-14T12:57:28;22.35;;;20.55;;
43819;SDS011;67762;52.476;6.046;2023-05-14T12:59:55;20.08;;;18.75;;
43819;SDS011;67762;52.476;6.046;2023-05-14T13:02:21;20.60;;;18.90;;
43819;SDS011;67762;52.476;6.046;2023-05-14T13:04:47;19.63;;;18.15;;
43819;SDS011;67762;52.476;6.046;2023-05-14T13:07:12;19.65;;;18.25;;
43819;SDS011;67762;52.476;6.046;2023-05-14T13:09:38;20.02;;;18.38;;
43819;SDS011;67762;52.476;6.046;2023-05-14T13:12:04;20.23;;;18.70;;
43819;SDS011;67762;52.476;6.046;2023-05-14T13:14:30;21.10;;;19.40;;
43819;SDS011;67762;52.476;6.046;2023-05-14T13:16:55;20.40;;;18.60;;
43819;SDS011;67762;52.476;6.046;2023-05-14T13:19:21;20.45;;;18.73;;
43819;SDS011;67762;52.476;6.046;2023-05-14T13:21:47;20.55;;;18.85;;
43819;SDS011;67762;52.476;6.046;2023-05-14T13:24:12;20.70;;;19.30;;
43819;SDS011;67762;52.476;6.046;2023-05-14T13:26:38;23.38;;;21.48;;
43819;SDS011;67762;52.476;6.046;2023-05-14T13:29:03;24.67;;;22.55;;
43819;SDS011;67762;52.476;6.046;2023-05-14T13:31:29;23.77;;;21.90;;
43819;SDS011;67762;52.476;6.046;2023-05-14T13:33:55;23.40;;;21.35;;
43819;SDS011;67762;52.476;6.046;2023-05-14T13:36:22;23.27;;;21.10;;
43819;SDS011;67762;52.476;6.046;2023-05-14T13:38:47;22.35;;;20.67;;
43819;SDS011;67762;52.476;6.046;2023-05-14T13:41:13;20.38;;;18.48;;
43819;SDS011;67762;52.476;6.046;2023-05-14T13:43:39;24.00;;;22.15;;
43819;SDS011;67762;52.476;6.046;2023-05-14T13:46:04;20.85;;;19.08;;
43819;SDS011;67762;52.476;6.046;2023-05-14T13:48:31;24.25;;;22.48;;
43819;SDS011;67762;52.476;6.046;2023-05-14T13:50:57;22.05;;;20.08;;
43819;SDS011;67762;52.476;6.046;2023-05-14T13:53:23;22.02;;;20.33;;
43819;SDS011;67762;52.476;6.046;2023-05-14T13:55:49;22.30;;;20.60;;
43819;SDS011;67762;52.476;6.046;2023-05-14T13:58:20;19.98;;;18.25;;
43819;SDS011;67762;52.476;6.046;2023-05-14T14:00:48;22.05;;;20.35;;
43819;SDS011;67762;52.476;6.046;2023-05-14T14:03:13;21.45;;;19.80;;
43819;SDS011;67762;52.476;6.046;2023-05-14T14:05:39;20.30;;;18.90;;